createdAt,value
2017-06-03T00:02:01.223Z,2.50
2017-06-03T00:04:28.867Z,4.47
2017-06-03T00:06:56.544Z,4.22
2017-06-03T00:09:24.215Z,3.22
2017-06-03T00:11:52.177Z,6.80
2017-06-03T00:14:19.838Z,4.90
2017-06-03T00:16:47.484Z,3.33
2017-06-03T00:19:15.167Z,2.97
2017-06-03T00:21:42.822Z,3.17
2017-06-03T00:24:10.735Z,2.90
2017-06-03T00:26:38.380Z,2.53
2017-06-03T00:29:06.022Z,2.97
2017-06-03T00:31:34.448Z,3.92
2017-06-03T00:34:02.085Z,3.65
2017-06-03T00:36:30.001Z,3.80
2017-06-03T00:38:57.628Z,2.75
2017-06-03T00:41:26.049Z,2.50
2017-06-03T00:43:53.721Z,2.50
2017-06-03T00:46:21.383Z,2.62
2017-06-03T00:48:50.068Z,4.05
2017-06-03T00:51:17.732Z,3.50
2017-06-03T00:53:45.365Z,3.33
2017-06-03T00:56:13.032Z,5.60
2017-06-03T00:58:40.666Z,3.22
2017-06-03T01:01:08.648Z,2.80
2017-06-03T01:03:36.288Z,2.67
2017-06-03T01:06:03.922Z,2.70
2017-06-03T01:08:31.585Z,2.60
2017-06-03T01:10:59.228Z,2.40
2017-06-03T01:13:27.193Z,2.35
2017-06-03T01:15:54.856Z,2.83
2017-06-03T01:18:22.512Z,3.00
2017-06-03T01:20:50.961Z,5.32
2017-06-03T01:23:18.601Z,3.72
2017-06-03T01:25:46.547Z,3.15
2017-06-03T01:28:14.185Z,2.55
2017-06-03T01:30:41.839Z,2.60
2017-06-03T01:33:09.504Z,3.00
2017-06-03T01:35:37.165Z,3.62
2017-06-03T01:38:05.181Z,3.58
2017-06-03T01:40:32.816Z,3.08
2017-06-03T01:43:00.457Z,2.67
2017-06-03T01:45:28.137Z,2.15
2017-06-03T01:47:55.775Z,1.87
2017-06-03T01:50:23.730Z,2.22
2017-06-03T01:52:51.365Z,4.72
2017-06-03T01:55:18.997Z,2.55
2017-06-03T01:57:46.665Z,2.92
2017-06-03T02:00:14.313Z,3.00
2017-06-03T02:02:42.279Z,3.90
2017-06-03T02:05:09.922Z,3.17
2017-06-03T02:07:37.606Z,3.30
2017-06-03T02:10:06.040Z,2.45
2017-06-03T02:12:33.678Z,2.70
2017-06-03T02:15:01.621Z,3.10
2017-06-03T02:17:29.275Z,3.17
2017-06-03T02:19:56.909Z,2.35
2017-06-03T02:22:24.599Z,2.53
2017-06-03T02:24:52.245Z,2.87
2017-06-03T02:27:20.265Z,3.25
2017-06-03T02:29:47.909Z,2.65
2017-06-03T02:32:15.556Z,3.30
2017-06-03T02:34:43.226Z,3.55
2017-06-03T02:37:10.874Z,3.45
2017-06-03T02:39:38.800Z,2.92
2017-06-03T02:42:06.450Z,4.72
2017-06-03T02:44:34.087Z,3.33
2017-06-03T02:47:01.754Z,3.95
2017-06-03T02:49:29.466Z,3.97
2017-06-03T02:51:57.457Z,3.30
2017-06-03T02:54:25.104Z,8.10
2017-06-03T02:56:52.739Z,3.50
2017-06-03T02:59:20.408Z,4.93
2017-06-03T03:01:48.040Z,3.45
2017-06-03T03:04:15.992Z,3.40
2017-06-03T03:06:43.634Z,3.60
2017-06-03T03:09:11.286Z,4.25
2017-06-03T03:11:38.953Z,3.40
2017-06-03T03:14:06.593Z,4.25
2017-06-03T03:16:34.531Z,3.17
2017-06-03T03:19:02.167Z,3.05
2017-06-03T03:21:29.809Z,3.00
2017-06-03T03:23:57.481Z,2.72
2017-06-03T03:26:25.137Z,3.15
2017-06-03T03:28:53.050Z,3.42
2017-06-03T03:31:20.702Z,3.28
2017-06-03T03:33:48.342Z,3.62
2017-06-03T03:36:16.010Z,3.28
2017-06-03T03:38:43.668Z,2.45
2017-06-03T03:41:11.711Z,3.30
2017-06-03T03:43:39.364Z,3.30
2017-06-03T03:46:07.013Z,3.67
2017-06-03T03:48:34.676Z,3.58
2017-06-03T03:51:02.308Z,4.80
2017-06-03T03:53:30.254Z,5.07
2017-06-03T03:55:57.908Z,2.97
2017-06-03T03:58:25.542Z,5.25
2017-06-03T04:00:53.208Z,3.45
2017-06-03T04:03:20.849Z,3.47
2017-06-03T04:05:48.793Z,2.85
2017-06-03T04:08:16.442Z,3.45
2017-06-03T04:10:44.077Z,3.05
2017-06-03T04:13:11.737Z,4.05
2017-06-03T04:15:39.375Z,3.87
2017-06-03T04:18:07.333Z,3.35
2017-06-03T04:20:34.968Z,3.30
2017-06-03T04:23:02.601Z,2.95
2017-06-03T04:25:30.265Z,2.97
2017-06-03T04:27:57.913Z,4.90
2017-06-03T04:30:25.855Z,5.22
2017-06-03T04:32:53.499Z,3.62
2017-06-03T04:35:21.141Z,4.03
2017-06-03T04:37:48.812Z,3.97
2017-06-03T04:40:16.456Z,3.97
2017-06-03T04:42:44.413Z,4.07
2017-06-03T04:45:12.060Z,3.47
2017-06-03T04:47:39.706Z,3.90
2017-06-03T04:50:08.104Z,3.25
2017-06-03T04:52:35.732Z,3.30
2017-06-03T04:55:03.673Z,4.00
2017-06-03T04:57:31.343Z,3.97
2017-06-03T04:59:58.979Z,3.70
2017-06-03T05:02:26.658Z,2.90
2017-06-03T05:04:55.066Z,3.10
2017-06-03T05:07:23.017Z,5.18
2017-06-03T05:09:50.669Z,3.90
2017-06-03T05:12:18.326Z,4.62
2017-06-03T05:14:45.997Z,3.55
2017-06-03T05:17:13.646Z,4.00
2017-06-03T05:19:41.671Z,4.72
2017-06-03T05:22:09.305Z,4.55
2017-06-03T05:24:36.972Z,3.87
2017-06-03T05:27:04.646Z,3.50
2017-06-03T05:29:32.288Z,4.37
2017-06-03T05:32:00.325Z,4.85
2017-06-03T05:34:27.960Z,5.35
2017-06-03T05:36:55.610Z,3.72
2017-06-03T05:39:23.285Z,4.20
2017-06-03T05:41:51.726Z,4.93
2017-06-03T05:44:19.671Z,3.87
2017-06-03T05:46:47.309Z,3.40
2017-06-03T05:49:14.948Z,4.03
2017-06-03T05:51:42.630Z,3.97
2017-06-03T05:54:10.274Z,4.03
2017-06-03T05:56:38.233Z,3.90
2017-06-03T05:59:05.859Z,5.07
2017-06-03T06:01:33.496Z,5.20
2017-06-03T06:04:01.157Z,6.27
2017-06-03T06:06:28.780Z,3.67
2017-06-03T06:08:56.701Z,3.80
2017-06-03T06:11:24.333Z,3.40
2017-06-03T06:13:51.975Z,3.53
2017-06-03T06:16:19.636Z,4.87
2017-06-03T06:18:47.266Z,5.03
2017-06-03T06:21:15.171Z,3.20
2017-06-03T06:23:42.822Z,3.20
2017-06-03T06:26:10.472Z,2.90
2017-06-03T06:28:38.123Z,2.90
2017-06-03T06:31:05.744Z,4.37
2017-06-03T06:33:34.451Z,3.00
2017-06-03T06:36:02.129Z,4.07
2017-06-03T06:38:29.751Z,3.00
2017-06-03T06:40:57.407Z,3.00
2017-06-03T06:43:25.120Z,3.47
2017-06-03T06:45:53.005Z,2.90
2017-06-03T06:48:20.771Z,3.00
2017-06-03T06:50:48.390Z,2.73
2017-06-03T06:53:16.064Z,2.70
2017-06-03T06:55:43.700Z,5.20
2017-06-03T06:58:11.630Z,3.20
2017-06-03T07:00:39.245Z,2.93
2017-06-03T07:03:07.747Z,6.43
2017-06-03T07:05:35.411Z,3.07
2017-06-03T07:08:03.012Z,2.87
2017-06-03T07:10:31.709Z,3.00
2017-06-03T07:12:59.450Z,3.03
2017-06-03T07:15:27.089Z,3.33
2017-06-03T07:17:54.740Z,2.73
2017-06-03T07:20:22.360Z,4.40
2017-06-03T07:22:51.063Z,3.60
2017-06-03T07:25:18.664Z,3.00
2017-06-03T07:27:46.289Z,6.90
2017-06-03T07:30:14.041Z,4.20
2017-06-03T07:32:41.644Z,3.30
2017-06-03T07:35:09.763Z,3.53
2017-06-03T07:37:37.385Z,3.73
2017-06-03T07:40:05.007Z,3.00
2017-06-03T07:42:32.652Z,3.73
2017-06-03T07:45:00.261Z,2.97
2017-06-03T07:47:28.960Z,3.40
2017-06-03T07:49:56.590Z,3.20
2017-06-03T07:52:24.213Z,3.80
2017-06-03T07:54:51.856Z,4.73
2017-06-03T07:57:19.693Z,3.67
2017-06-03T07:59:47.715Z,2.93
2017-06-03T08:02:15.319Z,3.70
2017-06-03T08:04:43.700Z,3.80
2017-06-03T08:07:11.351Z,3.13
2017-06-03T08:09:38.984Z,3.33
2017-06-03T08:12:06.964Z,3.10
2017-06-03T08:14:35.461Z,4.97
2017-06-03T08:17:03.079Z,3.83
2017-06-03T08:19:30.733Z,4.63
2017-06-03T08:21:59.205Z,3.53
2017-06-03T08:24:27.106Z,3.73
2017-06-03T08:26:55.488Z,5.13
2017-06-03T08:29:23.119Z,2.93
2017-06-03T08:31:51.539Z,3.50
2017-06-03T08:34:19.156Z,2.80
2017-06-03T08:36:47.035Z,2.77
2017-06-03T08:39:14.662Z,3.13
2017-06-03T08:41:42.272Z,4.50
2017-06-03T08:44:10.676Z,3.03
2017-06-03T08:46:38.287Z,3.60
2017-06-03T08:49:06.276Z,3.30
2017-06-03T08:51:33.889Z,4.17
2017-06-03T08:54:01.500Z,3.90
2017-06-03T08:56:29.162Z,2.90
2017-06-03T08:58:56.791Z,4.00
2017-06-03T09:01:24.688Z,4.23
2017-06-03T09:03:52.313Z,6.10
2017-06-03T09:06:19.941Z,3.70
2017-06-03T09:08:47.577Z,2.97
2017-06-03T09:11:15.187Z,3.70
2017-06-03T09:13:42.862Z,3.90
2017-06-03T09:16:10.480Z,4.20
2017-06-03T09:18:38.087Z,3.00
2017-06-03T09:21:06.038Z,2.93
2017-06-03T09:23:33.647Z,4.00
2017-06-03T09:26:01.265Z,3.20
2017-06-03T09:28:29.233Z,3.07
2017-06-03T09:30:56.846Z,3.40
2017-06-03T09:33:25.228Z,3.13
2017-06-03T09:35:53.184Z,3.60
2017-06-03T09:38:20.800Z,4.20
2017-06-03T09:40:49.214Z,3.37
2017-06-03T09:43:17.232Z,3.40
2017-06-03T09:45:45.608Z,3.77
2017-06-03T09:48:13.224Z,4.10
2017-06-03T09:50:41.126Z,3.83
2017-06-03T09:53:08.748Z,5.40
2017-06-03T09:55:36.357Z,4.70
2017-06-03T09:58:04.263Z,5.00
2017-06-03T10:00:31.893Z,3.73
2017-06-03T10:02:59.506Z,3.17
2017-06-03T10:05:27.513Z,3.60
2017-06-03T10:07:55.125Z,3.57
2017-06-03T10:10:23.506Z,4.00
2017-06-03T10:12:51.145Z,4.83
2017-06-03T10:15:18.793Z,3.60
2017-06-03T10:17:46.755Z,3.77
2017-06-03T10:20:14.372Z,4.40
2017-06-03T10:22:41.980Z,5.60
2017-06-03T10:25:09.647Z,3.47
2017-06-03T10:27:37.260Z,3.30
2017-06-03T10:30:05.163Z,3.60
2017-06-03T10:32:33.560Z,3.30
2017-06-03T10:35:01.173Z,4.20
2017-06-03T10:37:28.816Z,3.73
2017-06-03T10:39:56.428Z,4.23
2017-06-03T10:42:24.344Z,4.67
2017-06-03T10:44:51.961Z,3.20
2017-06-03T10:47:20.340Z,3.17
2017-06-03T10:49:48.037Z,4.00
2017-06-03T10:52:15.654Z,3.87
2017-06-03T10:54:43.581Z,3.20
2017-06-03T10:57:11.952Z,3.37
2017-06-03T10:59:39.569Z,3.20
2017-06-03T11:02:07.230Z,3.47
2017-06-03T11:04:34.840Z,3.70
2017-06-03T11:07:02.741Z,3.80
2017-06-03T11:09:31.120Z,3.57
2017-06-03T11:11:58.725Z,3.00
2017-06-03T11:14:26.371Z,3.50
2017-06-03T11:16:53.997Z,3.70
2017-06-03T11:19:21.958Z,4.53
2017-06-03T11:21:49.612Z,3.87
2017-06-03T11:24:17.216Z,6.37
2017-06-03T11:26:44.867Z,3.97
2017-06-03T11:29:12.477Z,4.23
2017-06-03T11:31:41.170Z,3.17
2017-06-03T11:34:08.787Z,3.73
2017-06-03T11:36:37.169Z,4.27
2017-06-03T11:39:04.819Z,3.53
2017-06-03T11:41:32.428Z,4.40
2017-06-03T11:44:00.336Z,3.13
2017-06-03T11:46:27.962Z,3.80
2017-06-03T11:48:55.578Z,4.07
2017-06-03T11:51:23.240Z,4.30
2017-06-03T11:53:51.617Z,4.13
2017-06-03T11:56:20.302Z,4.43
2017-06-03T11:58:47.903Z,4.30
2017-06-03T12:01:15.510Z,3.60
2017-06-03T12:03:43.156Z,3.90
2017-06-03T12:06:10.769Z,3.93
2017-06-03T12:08:38.874Z,3.83
2017-06-03T12:11:06.591Z,3.93
2017-06-03T12:13:34.217Z,3.93
2017-06-03T12:16:01.957Z,3.80
2017-06-03T12:18:30.342Z,3.87
2017-06-03T12:20:58.304Z,4.53
2017-06-03T12:23:25.929Z,4.73
2017-06-03T12:25:53.556Z,3.43
2017-06-03T12:28:21.212Z,4.10
2017-06-03T12:30:49.601Z,4.60
2017-06-03T12:33:17.560Z,4.03
2017-06-03T12:35:45.197Z,4.90
2017-06-03T12:38:12.894Z,3.90
2017-06-03T12:40:40.534Z,3.30
2017-06-03T12:43:08.144Z,5.07
2017-06-03T12:45:36.034Z,4.73
2017-06-03T12:48:03.644Z,5.53
2017-06-03T12:50:31.254Z,5.17
2017-06-03T12:52:58.904Z,4.03
2017-06-03T12:55:26.521Z,7.23
2017-06-03T12:57:54.434Z,3.87
2017-06-03T13:00:22.054Z,4.03
2017-06-03T13:02:50.487Z,4.00
2017-06-03T13:05:18.133Z,4.10
2017-06-03T13:07:45.745Z,4.60
2017-06-03T13:10:13.707Z,4.20
2017-06-03T13:12:41.326Z,4.50
2017-06-03T13:15:08.933Z,4.20
2017-06-03T13:17:36.588Z,3.87
2017-06-03T13:20:04.196Z,4.23
2017-06-03T13:22:32.134Z,4.17
2017-06-03T13:24:59.745Z,4.20
2017-06-03T13:27:28.125Z,3.97
2017-06-03T13:29:55.829Z,4.10
2017-06-03T13:32:23.439Z,4.20
2017-06-03T13:34:51.337Z,4.17
2017-06-03T13:37:18.948Z,3.33
2017-06-03T13:39:46.572Z,3.40
2017-06-03T13:42:14.262Z,4.50
2017-06-03T13:44:41.869Z,3.90
2017-06-03T13:47:09.795Z,4.47
2017-06-03T13:49:38.170Z,4.00
2017-06-03T13:52:05.792Z,4.20
2017-06-03T13:54:33.445Z,4.03
2017-06-03T13:57:01.051Z,4.63
2017-06-03T13:59:29.078Z,4.33
2017-06-03T14:01:56.693Z,4.00
2017-06-03T14:04:25.069Z,4.27
2017-06-03T14:06:52.720Z,5.40
2017-06-03T14:09:20.357Z,4.57
2017-06-03T14:11:48.328Z,4.30
2017-06-03T14:14:15.936Z,4.40
2017-06-03T14:16:43.548Z,4.27
2017-06-03T14:19:11.213Z,4.90
2017-06-03T14:21:38.836Z,4.27
2017-06-03T14:24:06.764Z,4.50
2017-06-03T14:26:34.389Z,4.67
2017-06-03T14:29:02.775Z,3.80
2017-06-03T14:31:30.413Z,4.03
2017-06-03T14:33:58.795Z,4.47
2017-06-03T14:36:26.744Z,4.80
2017-06-03T14:38:54.435Z,4.93
2017-06-03T14:41:22.040Z,5.07
2017-06-03T14:43:49.678Z,4.70
2017-06-03T14:46:17.292Z,4.50
2017-06-03T14:48:45.284Z,4.10
2017-06-03T14:51:12.888Z,4.83
2017-06-03T14:53:40.493Z,4.37
2017-06-03T14:56:08.132Z,4.80
2017-06-03T14:58:35.740Z,4.53
2017-06-03T15:01:04.418Z,5.93
2017-06-03T15:03:32.792Z,5.13
2017-06-03T15:06:00.399Z,4.50
2017-06-03T15:08:28.048Z,4.63
2017-06-03T15:10:55.660Z,6.40
2017-06-03T15:13:23.591Z,4.53
2017-06-03T15:15:51.204Z,5.00
2017-06-03T15:18:18.818Z,4.60
2017-06-03T15:20:46.452Z,4.57
2017-06-03T15:23:14.076Z,5.70
2017-06-03T15:25:42.032Z,5.40
2017-06-03T15:28:09.636Z,4.60
2017-06-03T15:30:37.255Z,4.70
2017-06-03T15:33:04.892Z,4.10
2017-06-03T15:35:32.511Z,5.20
2017-06-03T15:38:00.468Z,5.40
2017-06-03T15:40:28.108Z,4.50
2017-06-03T15:42:55.711Z,5.90
2017-06-03T15:45:23.357Z,10.60
2017-06-03T15:47:50.987Z,8.10
2017-06-03T15:50:18.899Z,6.00
2017-06-03T15:52:46.503Z,7.10
2017-06-03T15:55:14.117Z,6.50
2017-06-03T15:57:41.752Z,6.90
2017-06-03T16:00:09.364Z,9.03
2017-06-03T16:02:37.341Z,8.27
2017-06-03T16:05:04.971Z,11.40
2017-06-03T16:07:32.697Z,11.63
2017-06-03T16:10:00.355Z,12.70
2017-06-03T16:12:28.744Z,10.93
2017-06-03T16:14:56.696Z,12.30
2017-06-03T16:17:24.318Z,11.67
2017-06-03T16:19:52.707Z,12.33
2017-06-03T16:22:20.357Z,11.90
2017-06-03T16:24:47.986Z,13.93
2017-06-03T16:27:16.793Z,14.10
2017-06-03T16:29:44.408Z,15.13
2017-06-03T16:32:12.036Z,12.57
2017-06-03T16:34:39.685Z,12.20
2017-06-03T16:37:08.085Z,15.20
2017-06-03T16:39:36.044Z,15.53
2017-06-03T16:42:03.669Z,12.90
2017-06-03T16:44:31.287Z,11.80
2017-06-03T16:46:58.946Z,12.50
2017-06-03T16:49:26.575Z,15.27
2017-06-03T16:51:54.580Z,14.40
2017-06-03T16:54:22.240Z,14.55
2017-06-03T16:56:49.867Z,13.63
2017-06-03T16:59:17.564Z,15.35
2017-06-03T17:01:46.636Z,13.98
2017-06-03T17:04:14.406Z,12.10
2017-06-03T17:06:42.044Z,11.18
2017-06-03T17:09:10.048Z,9.43
2017-06-03T17:11:37.690Z,9.20
2017-06-03T17:14:05.359Z,9.07
2017-06-03T17:16:33.042Z,7.60
2017-06-03T17:19:01.456Z,7.95
2017-06-03T17:21:29.614Z,9.10
2017-06-03T17:23:58.252Z,9.43
2017-06-03T17:26:25.891Z,8.35
2017-06-03T17:28:53.715Z,9.85
2017-06-03T17:31:22.135Z,10.73
2017-06-03T17:33:52.849Z,11.82
2017-06-03T17:36:20.509Z,9.35
2017-06-03T17:38:48.169Z,10.98
2017-06-03T17:41:15.853Z,9.57
2017-06-03T17:43:44.292Z,11.90
2017-06-03T17:46:15.328Z,12.70
2017-06-03T17:48:43.695Z,10.13
2017-06-03T17:51:12.195Z,12.45
2017-06-03T17:53:40.565Z,13.23
2017-06-03T17:56:08.273Z,9.93
2017-06-03T17:58:36.318Z,10.00
2017-06-03T18:01:04.010Z,12.48
2017-06-03T18:03:31.765Z,12.45
2017-06-03T18:05:59.513Z,11.82
2017-06-03T18:08:27.185Z,13.82
2017-06-03T18:10:55.248Z,10.27
2017-06-03T18:13:22.901Z,9.68
2017-06-03T18:15:50.557Z,9.70
2017-06-03T18:18:18.232Z,8.82
2017-06-03T18:20:46.708Z,11.95
2017-06-03T18:23:14.800Z,11.05
2017-06-03T18:25:42.458Z,14.90
2017-06-03T18:28:10.156Z,19.85
2017-06-03T18:30:37.863Z,15.40
2017-06-03T18:33:05.667Z,13.20
2017-06-03T18:35:33.700Z,11.73
2017-06-03T18:38:02.198Z,10.93
2017-06-03T18:40:29.856Z,10.30
2017-06-03T18:42:58.705Z,10.13
2017-06-03T18:45:27.261Z,8.23
2017-06-03T18:47:56.080Z,11.45
2017-06-03T18:50:23.724Z,11.95
2017-06-03T18:52:51.376Z,11.18
2017-06-03T18:55:19.083Z,9.93
2017-06-03T18:57:46.749Z,12.73
2017-06-03T19:00:14.721Z,13.52
2017-06-03T19:02:42.422Z,13.07
2017-06-03T19:05:10.831Z,13.38
2017-06-03T19:07:39.766Z,14.10
2017-06-03T19:10:09.394Z,13.95
2017-06-03T19:12:37.342Z,13.40
2017-06-03T19:15:04.992Z,12.50
2017-06-03T19:17:32.643Z,15.80
2017-06-03T19:20:01.754Z,18.42
2017-06-03T19:22:29.481Z,18.35
2017-06-03T19:24:58.009Z,17.02
2017-06-03T19:27:26.351Z,14.82
2017-06-03T19:29:54.112Z,14.55
2017-06-03T19:32:21.812Z,18.52
2017-06-03T19:34:49.456Z,15.85
2017-06-03T19:37:17.410Z,16.75
2017-06-03T19:39:45.559Z,13.88
2017-06-03T19:42:13.797Z,15.57
2017-06-03T19:44:42.724Z,11.25
2017-06-03T19:47:11.025Z,11.10
2017-06-03T19:49:39.016Z,9.63
2017-06-03T19:52:06.723Z,11.50
2017-06-03T19:54:34.981Z,7.55
2017-06-03T19:57:03.426Z,8.32
2017-06-03T19:59:32.323Z,9.10
2017-06-03T20:02:01.868Z,7.68
2017-06-03T20:04:29.520Z,7.60
2017-06-03T20:06:57.161Z,6.68
2017-06-03T20:09:24.829Z,6.30
2017-06-03T20:11:52.468Z,10.25
2017-06-03T20:14:20.502Z,11.35
2017-06-03T20:16:48.553Z,7.90
2017-06-03T20:19:16.278Z,7.00
2017-06-03T20:21:43.954Z,8.68
2017-06-03T20:24:11.665Z,6.53
2017-06-03T20:26:39.924Z,9.30
2017-06-03T20:29:08.799Z,6.97
2017-06-03T20:31:37.685Z,4.90
2017-06-03T20:34:05.573Z,7.30
2017-06-03T20:36:33.223Z,4.93
2017-06-03T20:39:02.833Z,6.47
2017-06-03T20:41:30.657Z,6.18
2017-06-03T20:43:58.296Z,6.62
2017-06-03T20:46:25.969Z,7.00
2017-06-03T20:48:53.616Z,5.37
2017-06-03T20:51:22.068Z,5.78
2017-06-03T20:53:50.348Z,6.10
2017-06-03T20:56:17.997Z,5.60
2017-06-03T20:58:46.480Z,12.75
2017-06-03T21:01:16.642Z,9.85
2017-06-03T21:03:44.600Z,7.60
2017-06-03T21:06:12.244Z,5.53
2017-06-03T21:08:39.893Z,7.28
2017-06-03T21:11:07.684Z,4.30
2017-06-03T21:13:35.540Z,5.90
2017-06-03T21:16:03.526Z,6.93
2017-06-03T21:18:31.167Z,5.80
2017-06-03T21:20:59.744Z,4.10
2017-06-03T21:23:28.275Z,7.55
2017-06-03T21:25:57.173Z,5.25
2017-06-03T21:28:26.055Z,6.78
2017-06-03T21:30:54.275Z,4.53
2017-06-03T21:33:22.709Z,4.62
2017-06-03T21:35:50.405Z,6.25
2017-06-03T21:38:18.052Z,6.90
2017-06-03T21:40:47.249Z,4.82
2017-06-03T21:43:15.777Z,6.45
2017-06-03T21:45:43.660Z,4.90
2017-06-03T21:48:11.348Z,7.03
2017-06-03T21:50:39.488Z,6.65
2017-06-03T21:53:08.615Z,5.97
2017-06-03T21:55:36.261Z,6.12
2017-06-03T21:58:04.448Z,6.45
2017-06-03T22:00:33.157Z,5.80
2017-06-03T22:03:00.791Z,5.68
2017-06-03T22:05:28.705Z,8.73
2017-06-03T22:07:57.677Z,7.87
2017-06-03T22:10:25.355Z,8.48
2017-06-03T22:12:53.613Z,7.90
2017-06-03T22:15:22.904Z,7.57
2017-06-03T22:17:51.288Z,6.68
2017-06-03T22:20:18.952Z,8.60
2017-06-03T22:22:46.729Z,9.20
2017-06-03T22:25:15.374Z,10.02
2017-06-03T22:27:43.017Z,10.27
2017-06-03T22:30:11.105Z,8.38
2017-06-03T22:32:39.659Z,9.23
2017-06-03T22:35:07.356Z,10.30
2017-06-03T22:37:35.025Z,11.93
2017-06-03T22:40:02.678Z,10.40
2017-06-03T22:42:30.774Z,9.52
2017-06-03T22:44:59.327Z,11.68
2017-06-03T22:47:27.259Z,12.40
2017-06-03T22:49:55.036Z,10.27
2017-06-03T22:52:22.755Z,12.52
2017-06-03T22:54:51.339Z,7.80
2017-06-03T22:57:18.986Z,12.50
2017-06-03T22:59:46.656Z,15.25
2017-06-03T23:02:14.332Z,14.35
2017-06-03T23:04:42.001Z,16.85
2017-06-03T23:07:09.952Z,15.02
2017-06-03T23:09:37.617Z,11.60
2017-06-03T23:12:05.272Z,10.85
2017-06-03T23:14:33.098Z,10.85
2017-06-03T23:17:00.888Z,10.93
2017-06-03T23:19:28.958Z,14.10
2017-06-03T23:21:56.611Z,13.60
2017-06-03T23:24:24.347Z,10.27
2017-06-03T23:26:52.017Z,9.50
2017-06-03T23:29:19.676Z,11.70
2017-06-03T23:31:47.662Z,11.07
2017-06-03T23:34:15.319Z,14.63
2017-06-03T23:36:42.985Z,14.48
2017-06-03T23:39:10.662Z,17.85
2017-06-03T23:41:38.325Z,16.90
2017-06-03T23:44:06.251Z,13.38
2017-06-03T23:46:33.909Z,12.65
2017-06-03T23:49:01.562Z,11.95
2017-06-03T23:51:29.245Z,10.98
2017-06-03T23:53:57.011Z,16.58
2017-06-03T23:56:25.752Z,15.15
2017-06-03T23:58:53.409Z,15.38
